sensor_id;sensor_type;location;lat;lon;timestamp;P1;durP1;ratioP1;P2;durP2;ratioP2
7667;SDS011;3876;42.204;24.686;2024-03-29T00:00:55;1.10;;;1.10;;
7667;SDS011;3876;42.204;24.686;2024-03-29T00:03:22;1.87;;;1.77;;
7667;SDS011;3876;42.204;24.686;2024-03-29T00:05:47;1.57;;;1.47;;
7667;SDS011;3876;42.204;24.686;2024-03-29T00:08:13;7.30;;;1.23;;
7667;SDS011;3876;42.204;24.686;2024-03-29T00:10:39;3.67;;;1.13;;
7667;SDS011;3876;42.204;24.686;2024-03-29T00:13:06;11.33;;;1.47;;
7667;SDS011;3876;42.204;24.686;2024-03-29T00:15:32;1.10;;;1.00;;
7667;SDS011;3876;42.204;24.686;2024-03-29T00:17:58;1.43;;;1.03;;
7667;SDS011;3876;42.204;24.686;2024-03-29T00:20:24;1.40;;;1.30;;
7667;SDS011;3876;42.204;24.686;2024-03-29T00:22:49;1.10;;;1.10;;
7667;SDS011;3876;42.204;24.686;2024-03-29T00:25:15;0.80;;;0.80;;
7667;SDS011;3876;42.204;24.686;2024-03-29T00:27:41;0.60;;;0.60;;
7667;SDS011;3876;42.204;24.686;2024-03-29T00:30:09;3.90;;;1.27;;
7667;SDS011;3876;42.204;24.686;2024-03-29T00:32:35;3.13;;;0.93;;
7667;SDS011;3876;42.204;24.686;2024-03-29T00:35:01;1.20;;;1.20;;
7667;SDS011;3876;42.204;24.686;2024-03-29T00:37:27;1.10;;;1.00;;
7667;SDS011;3876;42.204;24.686;2024-03-29T00:39:53;0.90;;;0.90;;
7667;SDS011;3876;42.204;24.686;2024-03-29T00:42:19;0.70;;;0.70;;
7667;SDS011;3876;42.204;24.686;2024-03-29T00:44:45;1.17;;;1.17;;
7667;SDS011;3876;42.204;24.686;2024-03-29T00:47:12;1.07;;;1.00;;
7667;SDS011;3876;42.204;24.686;2024-03-29T00:49:38;1.30;;;1.30;;
7667;SDS011;3876;42.204;24.686;2024-03-29T00:52:04;0.67;;;0.67;;
7667;SDS011;3876;42.204;24.686;2024-03-29T00:54:30;1.13;;;1.13;;
7667;SDS011;3876;42.204;24.686;2024-03-29T00:56:56;1.00;;;1.00;;
7667;SDS011;3876;42.204;24.686;2024-03-29T00:59:22;0.73;;;0.73;;
7667;SDS011;3876;42.204;24.686;2024-03-29T01:01:49;0.90;;;0.90;;
7667;SDS011;3876;42.204;24.686;2024-03-29T01:04:16;1.03;;;1.03;;
7667;SDS011;3876;42.204;24.686;2024-03-29T01:06:42;0.70;;;0.70;;
7667;SDS011;3876;42.204;24.686;2024-03-29T01:09:08;4.23;;;0.67;;
7667;SDS011;3876;42.204;24.686;2024-03-29T01:11:34;1.40;;;1.00;;
7667;SDS011;3876;42.204;24.686;2024-03-29T01:14:00;0.60;;;0.60;;
7667;SDS011;3876;42.204;24.686;2024-03-29T01:16:25;0.50;;;0.50;;
7667;SDS011;3876;42.204;24.686;2024-03-29T01:18:51;1.17;;;1.07;;
7667;SDS011;3876;42.204;24.686;2024-03-29T01:21:18;0.80;;;0.80;;
7667;SDS011;3876;42.204;24.686;2024-03-29T01:23:44;1.37;;;1.33;;
7667;SDS011;3876;42.204;24.686;2024-03-29T01:26:10;0.70;;;0.50;;
7667;SDS011;3876;42.204;24.686;2024-03-29T01:28:36;0.63;;;0.63;;
7667;SDS011;3876;42.204;24.686;2024-03-29T01:31:02;0.50;;;0.50;;
7667;SDS011;3876;42.204;24.686;2024-03-29T01:33:28;0.60;;;0.60;;
7667;SDS011;3876;42.204;24.686;2024-03-29T01:35:53;0.50;;;0.50;;
7667;SDS011;3876;42.204;24.686;2024-03-29T01:38:21;0.50;;;0.50;;
7667;SDS011;3876;42.204;24.686;2024-03-29T01:40:47;0.70;;;0.70;;
7667;SDS011;3876;42.204;24.686;2024-03-29T01:43:12;0.73;;;0.73;;
7667;SDS011;3876;42.204;24.686;2024-03-29T01:45:39;1.23;;;0.90;;
7667;SDS011;3876;42.204;24.686;2024-03-29T01:48:08;0.60;;;0.60;;
7667;SDS011;3876;42.204;24.686;2024-03-29T01:50:35;0.80;;;0.80;;
7667;SDS011;3876;42.204;24.686;2024-03-29T01:53:04;0.50;;;0.50;;
7667;SDS011;3876;42.204;24.686;2024-03-29T01:55:35;0.50;;;0.50;;
7667;SDS011;3876;42.204;24.686;2024-03-29T01:58:02;0.57;;;0.57;;
7667;SDS011;3876;42.204;24.686;2024-03-29T02:00:29;0.60;;;0.60;;
7667;SDS011;3876;42.204;24.686;2024-03-29T02:02:57;0.30;;;0.30;;
7667;SDS011;3876;42.204;24.686;2024-03-29T02:05:25;0.40;;;0.40;;
7667;SDS011;3876;42.204;24.686;2024-03-29T02:07:52;0.63;;;0.63;;
7667;SDS011;3876;42.204;24.686;2024-03-29T02:10:21;0.60;;;0.60;;
7667;SDS011;3876;42.204;24.686;2024-03-29T02:12:49;0.87;;;0.87;;
7667;SDS011;3876;42.204;24.686;2024-03-29T02:15:16;0.47;;;0.47;;
7667;SDS011;3876;42.204;24.686;2024-03-29T02:17:43;0.50;;;0.50;;
7667;SDS011;3876;42.204;24.686;2024-03-29T02:20:10;0.60;;;0.60;;
7667;SDS011;3876;42.204;24.686;2024-03-29T02:22:39;0.70;;;0.70;;
7667;SDS011;3876;42.204;24.686;2024-03-29T02:25:14;0.40;;;0.40;;
7667;SDS011;3876;42.204;24.686;2024-03-29T02:27:41;0.70;;;0.70;;
7667;SDS011;3876;42.204;24.686;2024-03-29T02:30:12;0.40;;;0.40;;
7667;SDS011;3876;42.204;24.686;2024-03-29T02:32:39;0.70;;;0.70;;
7667;SDS011;3876;42.204;24.686;2024-03-29T02:35:06;0.57;;;0.50;;
7667;SDS011;3876;42.204;24.686;2024-03-29T02:37:34;0.67;;;0.67;;
7667;SDS011;3876;42.204;24.686;2024-03-29T02:40:01;0.60;;;0.60;;
7667;SDS011;3876;42.204;24.686;2024-03-29T02:42:29;0.53;;;0.53;;
7667;SDS011;3876;42.204;24.686;2024-03-29T02:44:56;1.47;;;1.10;;
7667;SDS011;3876;42.204;24.686;2024-03-29T02:47:23;0.70;;;0.70;;
7667;SDS011;3876;42.204;24.686;2024-03-29T02:49:50;0.60;;;0.60;;
7667;SDS011;3876;42.204;24.686;2024-03-29T02:52:15;0.67;;;0.67;;
7667;SDS011;3876;42.204;24.686;2024-03-29T02:54:42;1.10;;;0.70;;
7667;SDS011;3876;42.204;24.686;2024-03-29T02:57:08;8.03;;;0.90;;
7667;SDS011;3876;42.204;24.686;2024-03-29T02:59:36;1.23;;;0.60;;
7667;SDS011;3876;42.204;24.686;2024-03-29T03:02:01;0.50;;;0.50;;
7667;SDS011;3876;42.204;24.686;2024-03-29T03:04:28;0.97;;;0.90;;
7667;SDS011;3876;42.204;24.686;2024-03-29T03:06:54;0.60;;;0.60;;
7667;SDS011;3876;42.204;24.686;2024-03-29T03:09:31;0.83;;;0.83;;
7667;SDS011;3876;42.204;24.686;2024-03-29T03:12:15;0.50;;;0.50;;
7667;SDS011;3876;42.204;24.686;2024-03-29T03:14:43;1.13;;;1.00;;
7667;SDS011;3876;42.204;24.686;2024-03-29T03:17:10;0.70;;;0.70;;
7667;SDS011;3876;42.204;24.686;2024-03-29T03:19:36;1.50;;;0.60;;
7667;SDS011;3876;42.204;24.686;2024-03-29T03:22:02;0.80;;;0.80;;
7667;SDS011;3876;42.204;24.686;2024-03-29T03:24:28;0.57;;;0.57;;
7667;SDS011;3876;42.204;24.686;2024-03-29T03:26:55;1.03;;;0.70;;
7667;SDS011;3876;42.204;24.686;2024-03-29T03:29:21;1.00;;;1.00;;
7667;SDS011;3876;42.204;24.686;2024-03-29T03:31:49;2.33;;;0.80;;
7667;SDS011;3876;42.204;24.686;2024-03-29T03:34:14;1.27;;;1.27;;
7667;SDS011;3876;42.204;24.686;2024-03-29T03:36:41;0.83;;;0.83;;
7667;SDS011;3876;42.204;24.686;2024-03-29T03:39:07;0.77;;;0.77;;
7667;SDS011;3876;42.204;24.686;2024-03-29T03:41:33;0.60;;;0.60;;
7667;SDS011;3876;42.204;24.686;2024-03-29T03:43:59;0.70;;;0.70;;
7667;SDS011;3876;42.204;24.686;2024-03-29T03:46:26;0.60;;;0.60;;
7667;SDS011;3876;42.204;24.686;2024-03-29T03:48:53;0.50;;;0.50;;
7667;SDS011;3876;42.204;24.686;2024-03-29T03:51:19;5.17;;;0.63;;
7667;SDS011;3876;42.204;24.686;2024-03-29T03:53:45;0.43;;;0.43;;
7667;SDS011;3876;42.204;24.686;2024-03-29T03:56:12;0.60;;;0.60;;
7667;SDS011;3876;42.204;24.686;2024-03-29T03:58:37;1.23;;;0.43;;
7667;SDS011;3876;42.204;24.686;2024-03-29T04:01:05;0.80;;;0.80;;
7667;SDS011;3876;42.204;24.686;2024-03-29T04:03:31;1.10;;;1.10;;
7667;SDS011;3876;42.204;24.686;2024-03-29T04:06:02;0.70;;;0.70;;
7667;SDS011;3876;42.204;24.686;2024-03-29T04:08:28;0.90;;;0.80;;
7667;SDS011;3876;42.204;24.686;2024-03-29T04:10:55;0.60;;;0.60;;
7667;SDS011;3876;42.204;24.686;2024-03-29T04:13:20;0.67;;;0.67;;
7667;SDS011;3876;42.204;24.686;2024-03-29T04:15:48;0.57;;;0.57;;
7667;SDS011;3876;42.204;24.686;2024-03-29T04:18:14;0.60;;;0.60;;
7667;SDS011;3876;42.204;24.686;2024-03-29T04:20:40;0.63;;;0.63;;
7667;SDS011;3876;42.204;24.686;2024-03-29T04:23:07;0.83;;;0.83;;
7667;SDS011;3876;42.204;24.686;2024-03-29T04:25:34;2.57;;;0.70;;
7667;SDS011;3876;42.204;24.686;2024-03-29T04:28:00;0.47;;;0.47;;
7667;SDS011;3876;42.204;24.686;2024-03-29T04:30:27;0.87;;;0.87;;
7667;SDS011;3876;42.204;24.686;2024-03-29T04:32:53;2.00;;;0.60;;
7667;SDS011;3876;42.204;24.686;2024-03-29T04:35:20;2.03;;;1.13;;
7667;SDS011;3876;42.204;24.686;2024-03-29T04:37:45;0.70;;;0.70;;
7667;SDS011;3876;42.204;24.686;2024-03-29T04:40:13;1.00;;;0.80;;
7667;SDS011;3876;42.204;24.686;2024-03-29T04:42:40;1.40;;;1.30;;
7667;SDS011;3876;42.204;24.686;2024-03-29T04:45:07;0.53;;;0.53;;
7667;SDS011;3876;42.204;24.686;2024-03-29T04:47:34;0.50;;;0.50;;
7667;SDS011;3876;42.204;24.686;2024-03-29T04:50:01;0.53;;;0.53;;
7667;SDS011;3876;42.204;24.686;2024-03-29T04:52:27;2.10;;;0.80;;
7667;SDS011;3876;42.204;24.686;2024-03-29T04:54:54;3.07;;;1.77;;
7667;SDS011;3876;42.204;24.686;2024-03-29T04:57:22;0.70;;;0.70;;
7667;SDS011;3876;42.204;24.686;2024-03-29T04:59:49;0.80;;;0.80;;
7667;SDS011;3876;42.204;24.686;2024-03-29T05:02:15;1.60;;;0.90;;
7667;SDS011;3876;42.204;24.686;2024-03-29T05:04:42;4.63;;;1.07;;
7667;SDS011;3876;42.204;24.686;2024-03-29T05:07:09;0.70;;;0.70;;
7667;SDS011;3876;42.204;24.686;2024-03-29T05:09:36;0.50;;;0.50;;
7667;SDS011;3876;42.204;24.686;2024-03-29T05:12:02;0.60;;;0.60;;
7667;SDS011;3876;42.204;24.686;2024-03-29T05:14:31;0.90;;;0.90;;
7667;SDS011;3876;42.204;24.686;2024-03-29T05:16:57;1.00;;;0.87;;
7667;SDS011;3876;42.204;24.686;2024-03-29T05:19:24;0.60;;;0.60;;
7667;SDS011;3876;42.204;24.686;2024-03-29T05:21:51;0.80;;;0.80;;
7667;SDS011;3876;42.204;24.686;2024-03-29T05:24:18;0.50;;;0.50;;
7667;SDS011;3876;42.204;24.686;2024-03-29T05:26:44;0.80;;;0.80;;
7667;SDS011;3876;42.204;24.686;2024-03-29T05:29:11;3.27;;;0.80;;
7667;SDS011;3876;42.204;24.686;2024-03-29T05:31:39;0.60;;;0.60;;
7667;SDS011;3876;42.204;24.686;2024-03-29T05:34:07;0.77;;;0.77;;
7667;SDS011;3876;42.204;24.686;2024-03-29T05:36:33;1.00;;;1.00;;
7667;SDS011;3876;42.204;24.686;2024-03-29T05:39:01;0.80;;;0.80;;
7667;SDS011;3876;42.204;24.686;2024-03-29T05:41:28;2.00;;;0.83;;
7667;SDS011;3876;42.204;24.686;2024-03-29T05:43:57;0.63;;;0.63;;
7667;SDS011;3876;42.204;24.686;2024-03-29T05:46:23;0.67;;;0.67;;
7667;SDS011;3876;42.204;24.686;2024-03-29T05:48:51;1.43;;;0.70;;
7667;SDS011;3876;42.204;24.686;2024-03-29T05:51:18;0.70;;;0.70;;
7667;SDS011;3876;42.204;24.686;2024-03-29T05:53:45;0.67;;;0.67;;
7667;SDS011;3876;42.204;24.686;2024-03-29T05:56:11;1.97;;;1.00;;
7667;SDS011;3876;42.204;24.686;2024-03-29T05:58:38;5.27;;;1.07;;
7667;SDS011;3876;42.204;24.686;2024-03-29T06:01:05;0.73;;;0.73;;
7667;SDS011;3876;42.204;24.686;2024-03-29T06:03:31;3.30;;;1.17;;
7667;SDS011;3876;42.204;24.686;2024-03-29T06:06:00;0.83;;;0.83;;
7667;SDS011;3876;42.204;24.686;2024-03-29T06:08:26;0.90;;;0.90;;
7667;SDS011;3876;42.204;24.686;2024-03-29T06:10:53;1.13;;;0.80;;
7667;SDS011;3876;42.204;24.686;2024-03-29T06:13:20;0.50;;;0.50;;
7667;SDS011;3876;42.204;24.686;2024-03-29T06:16:04;0.87;;;0.87;;
7667;SDS011;3876;42.204;24.686;2024-03-29T06:18:48;0.60;;;0.60;;
7667;SDS011;3876;42.204;24.686;2024-03-29T06:21:16;0.53;;;0.53;;
7667;SDS011;3876;42.204;24.686;2024-03-29T06:23:42;1.10;;;1.10;;
7667;SDS011;3876;42.204;24.686;2024-03-29T06:26:09;0.60;;;0.60;;
7667;SDS011;3876;42.204;24.686;2024-03-29T06:28:36;2.60;;;1.33;;
7667;SDS011;3876;42.204;24.686;2024-03-29T06:31:03;1.10;;;1.10;;
7667;SDS011;3876;42.204;24.686;2024-03-29T06:33:29;0.60;;;0.60;;
7667;SDS011;3876;42.204;24.686;2024-03-29T06:35:56;0.50;;;0.50;;
7667;SDS011;3876;42.204;24.686;2024-03-29T06:38:24;1.70;;;0.63;;
7667;SDS011;3876;42.204;24.686;2024-03-29T06:40:51;0.50;;;0.50;;
7667;SDS011;3876;42.204;24.686;2024-03-29T06:43:18;0.50;;;0.50;;
7667;SDS011;3876;42.204;24.686;2024-03-29T06:45:44;0.80;;;0.80;;
7667;SDS011;3876;42.204;24.686;2024-03-29T06:48:11;2.20;;;0.57;;
7667;SDS011;3876;42.204;24.686;2024-03-29T06:50:38;0.70;;;0.70;;
7667;SDS011;3876;42.204;24.686;2024-03-29T06:53:05;0.57;;;0.57;;
7667;SDS011;3876;42.204;24.686;2024-03-29T06:55:35;0.50;;;0.50;;
7667;SDS011;3876;42.204;24.686;2024-03-29T06:58:02;0.60;;;0.60;;
7667;SDS011;3876;42.204;24.686;2024-03-29T07:00:29;2.87;;;0.80;;
7667;SDS011;3876;42.204;24.686;2024-03-29T07:02:55;0.60;;;0.60;;
7667;SDS011;3876;42.204;24.686;2024-03-29T07:05:22;0.53;;;0.53;;
7667;SDS011;3876;42.204;24.686;2024-03-29T07:07:49;1.23;;;0.40;;
7667;SDS011;3876;42.204;24.686;2024-03-29T07:10:16;0.70;;;0.70;;
7667;SDS011;3876;42.204;24.686;2024-03-29T07:12:44;0.83;;;0.83;;
7667;SDS011;3876;42.204;24.686;2024-03-29T07:15:10;0.57;;;0.57;;
7667;SDS011;3876;42.204;24.686;2024-03-29T07:17:37;1.80;;;0.73;;
7667;SDS011;3876;42.204;24.686;2024-03-29T07:20:05;0.60;;;0.60;;
7667;SDS011;3876;42.204;24.686;2024-03-29T07:22:33;0.50;;;0.50;;
7667;SDS011;3876;42.204;24.686;2024-03-29T07:25:00;0.60;;;0.60;;
7667;SDS011;3876;42.204;24.686;2024-03-29T07:27:26;0.57;;;0.57;;
7667;SDS011;3876;42.204;24.686;2024-03-29T07:29:59;0.50;;;0.50;;
7667;SDS011;3876;42.204;24.686;2024-03-29T07:32:26;0.70;;;0.70;;
7667;SDS011;3876;42.204;24.686;2024-03-29T07:34:52;0.40;;;0.40;;
7667;SDS011;3876;42.204;24.686;2024-03-29T07:37:21;1.00;;;0.60;;
7667;SDS011;3876;42.204;24.686;2024-03-29T07:39:48;2.73;;;0.60;;
7667;SDS011;3876;42.204;24.686;2024-03-29T07:42:15;0.60;;;0.60;;
7667;SDS011;3876;42.204;24.686;2024-03-29T07:44:42;0.40;;;0.40;;
7667;SDS011;3876;42.204;24.686;2024-03-29T07:47:10;0.40;;;0.40;;
7667;SDS011;3876;42.204;24.686;2024-03-29T07:49:38;0.93;;;0.60;;
7667;SDS011;3876;42.204;24.686;2024-03-29T07:52:05;0.50;;;0.50;;
7667;SDS011;3876;42.204;24.686;2024-03-29T07:54:33;0.50;;;0.50;;
7667;SDS011;3876;42.204;24.686;2024-03-29T07:57:00;1.00;;;1.00;;
7667;SDS011;3876;42.204;24.686;2024-03-29T07:59:27;0.50;;;0.50;;
7667;SDS011;3876;42.204;24.686;2024-03-29T08:01:54;2.27;;;0.43;;
7667;SDS011;3876;42.204;24.686;2024-03-29T08:04:24;0.50;;;0.50;;
7667;SDS011;3876;42.204;24.686;2024-03-29T08:06:51;0.30;;;0.30;;
7667;SDS011;3876;42.204;24.686;2024-03-29T08:09:18;2.27;;;0.40;;
7667;SDS011;3876;42.204;24.686;2024-03-29T08:11:44;0.50;;;0.50;;
7667;SDS011;3876;42.204;24.686;2024-03-29T08:14:11;0.50;;;0.50;;
7667;SDS011;3876;42.204;24.686;2024-03-29T08:16:38;0.50;;;0.47;;
7667;SDS011;3876;42.204;24.686;2024-03-29T08:19:05;1.10;;;0.50;;
7667;SDS011;3876;42.204;24.686;2024-03-29T08:21:33;2.00;;;0.67;;
7667;SDS011;3876;42.204;24.686;2024-03-29T08:24:01;4.17;;;0.40;;
7667;SDS011;3876;42.204;24.686;2024-03-29T08:26:29;0.50;;;0.50;;
7667;SDS011;3876;42.204;24.686;2024-03-29T08:28:56;0.80;;;0.80;;
7667;SDS011;3876;42.204;24.686;2024-03-29T08:31:23;1.30;;;0.40;;
7667;SDS011;3876;42.204;24.686;2024-03-29T08:33:49;5.00;;;0.70;;
7667;SDS011;3876;42.204;24.686;2024-03-29T08:36:17;0.40;;;0.40;;
7667;SDS011;3876;42.204;24.686;2024-03-29T08:38:45;0.30;;;0.30;;
7667;SDS011;3876;42.204;24.686;2024-03-29T08:41:12;0.30;;;0.30;;
7667;SDS011;3876;42.204;24.686;2024-03-29T08:43:39;0.40;;;0.40;;
7667;SDS011;3876;42.204;24.686;2024-03-29T08:46:06;0.30;;;0.30;;
7667;SDS011;3876;42.204;24.686;2024-03-29T08:48:34;0.50;;;0.50;;
7667;SDS011;3876;42.204;24.686;2024-03-29T08:51:01;0.40;;;0.40;;
7667;SDS011;3876;42.204;24.686;2024-03-29T08:53:28;0.40;;;0.40;;
7667;SDS011;3876;42.204;24.686;2024-03-29T08:55:56;0.40;;;0.40;;
7667;SDS011;3876;42.204;24.686;2024-03-29T08:58:23;0.50;;;0.50;;
7667;SDS011;3876;42.204;24.686;2024-03-29T09:00:53;0.37;;;0.37;;
7667;SDS011;3876;42.204;24.686;2024-03-29T09:03:20;0.40;;;0.40;;
7667;SDS011;3876;42.204;24.686;2024-03-29T09:05:48;0.67;;;0.50;;
7667;SDS011;3876;42.204;24.686;2024-03-29T09:08:14;0.40;;;0.40;;
7667;SDS011;3876;42.204;24.686;2024-03-29T09:10:41;1.30;;;0.50;;
7667;SDS011;3876;42.204;24.686;2024-03-29T09:13:09;0.30;;;0.30;;
7667;SDS011;3876;42.204;24.686;2024-03-29T09:15:36;0.30;;;0.30;;
7667;SDS011;3876;42.204;24.686;2024-03-29T09:18:03;0.50;;;0.50;;
7667;SDS011;3876;42.204;24.686;2024-03-29T09:20:35;0.30;;;0.30;;
7667;SDS011;3876;42.204;24.686;2024-03-29T09:23:02;0.40;;;0.40;;
7667;SDS011;3876;42.204;24.686;2024-03-29T09:25:29;0.50;;;0.50;;
7667;SDS011;3876;42.204;24.686;2024-03-29T09:27:57;0.37;;;0.37;;
7667;SDS011;3876;42.204;24.686;2024-03-29T09:30:25;0.27;;;0.27;;
7667;SDS011;3876;42.204;24.686;2024-03-29T09:32:52;0.50;;;0.40;;
7667;SDS011;3876;42.204;24.686;2024-03-29T09:35:18;0.47;;;0.47;;
7667;SDS011;3876;42.204;24.686;2024-03-29T09:37:45;3.27;;;0.63;;
7667;SDS011;3876;42.204;24.686;2024-03-29T09:40:12;0.40;;;0.40;;
7667;SDS011;3876;42.204;24.686;2024-03-29T09:42:40;0.27;;;0.27;;
7667;SDS011;3876;42.204;24.686;2024-03-29T09:45:10;0.30;;;0.30;;
7667;SDS011;3876;42.204;24.686;2024-03-29T09:47:39;0.30;;;0.30;;
7667;SDS011;3876;42.204;24.686;2024-03-29T09:50:07;0.37;;;0.37;;
7667;SDS011;3876;42.204;24.686;2024-03-29T09:52:34;0.30;;;0.30;;
7667;SDS011;3876;42.204;24.686;2024-03-29T09:55:03;0.30;;;0.30;;
7667;SDS011;3876;42.204;24.686;2024-03-29T09:57:32;1.23;;;0.50;;
7667;SDS011;3876;42.204;24.686;2024-03-29T09:59:59;0.30;;;0.30;;
7667;SDS011;3876;42.204;24.686;2024-03-29T10:02:26;0.57;;;0.57;;
7667;SDS011;3876;42.204;24.686;2024-03-29T10:04:58;0.30;;;0.30;;
7667;SDS011;3876;42.204;24.686;2024-03-29T10:07:29;0.30;;;0.30;;
7667;SDS011;3876;42.204;24.686;2024-03-29T10:09:57;0.33;;;0.33;;
7667;SDS011;3876;42.204;24.686;2024-03-29T10:12:24;0.33;;;0.33;;
7667;SDS011;3876;42.204;24.686;2024-03-29T10:14:51;0.50;;;0.50;;
7667;SDS011;3876;42.204;24.686;2024-03-29T10:17:20;0.33;;;0.33;;
7667;SDS011;3876;42.204;24.686;2024-03-29T10:19:47;0.20;;;0.20;;
7667;SDS011;3876;42.204;24.686;2024-03-29T10:22:15;0.30;;;0.30;;
7667;SDS011;3876;42.204;24.686;2024-03-29T10:24:42;0.30;;;0.30;;
7667;SDS011;3876;42.204;24.686;2024-03-29T10:27:09;1.60;;;0.30;;
7667;SDS011;3876;42.204;24.686;2024-03-29T10:29:36;0.40;;;0.40;;
7667;SDS011;3876;42.204;24.686;2024-03-29T10:32:02;0.20;;;0.20;;
7667;SDS011;3876;42.204;24.686;2024-03-29T10:34:29;4.23;;;0.40;;
7667;SDS011;3876;42.204;24.686;2024-03-29T10:37:00;0.43;;;0.43;;
7667;SDS011;3876;42.204;24.686;2024-03-29T10:39:30;0.63;;;0.63;;
7667;SDS011;3876;42.204;24.686;2024-03-29T10:41:59;0.50;;;0.50;;
7667;SDS011;3876;42.204;24.686;2024-03-29T10:44:26;0.43;;;0.43;;
7667;SDS011;3876;42.204;24.686;2024-03-29T10:46:55;0.57;;;0.23;;
7667;SDS011;3876;42.204;24.686;2024-03-29T10:49:23;0.30;;;0.30;;
7667;SDS011;3876;42.204;24.686;2024-03-29T10:51:50;0.30;;;0.30;;
7667;SDS011;3876;42.204;24.686;2024-03-29T10:54:17;0.40;;;0.40;;
7667;SDS011;3876;42.204;24.686;2024-03-29T10:56:47;0.20;;;0.20;;
7667;SDS011;3876;42.204;24.686;2024-03-29T10:59:20;0.23;;;0.23;;
7667;SDS011;3876;42.204;24.686;2024-03-29T11:01:51;0.37;;;0.37;;
7667;SDS011;3876;42.204;24.686;2024-03-29T11:04:22;0.40;;;0.40;;
7667;SDS011;3876;42.204;24.686;2024-03-29T11:06:51;0.73;;;0.50;;
7667;SDS011;3876;42.204;24.686;2024-03-29T11:09:23;0.33;;;0.33;;
7667;SDS011;3876;42.204;24.686;2024-03-29T11:11:57;0.30;;;0.30;;
7667;SDS011;3876;42.204;24.686;2024-03-29T11:14:33;0.50;;;0.50;;
7667;SDS011;3876;42.204;24.686;2024-03-29T11:17:03;0.27;;;0.27;;
7667;SDS011;3876;42.204;24.686;2024-03-29T11:19:30;0.40;;;0.40;;
7667;SDS011;3876;42.204;24.686;2024-03-29T11:21:57;0.47;;;0.47;;
7667;SDS011;3876;42.204;24.686;2024-03-29T11:24:25;0.30;;;0.30;;
7667;SDS011;3876;42.204;24.686;2024-03-29T11:26:54;0.60;;;0.60;;
7667;SDS011;3876;42.204;24.686;2024-03-29T11:29:22;0.30;;;0.30;;
7667;SDS011;3876;42.204;24.686;2024-03-29T11:31:55;0.57;;;0.50;;
7667;SDS011;3876;42.204;24.686;2024-03-29T11:34:22;0.30;;;0.30;;
7667;SDS011;3876;42.204;24.686;2024-03-29T11:36:49;1.40;;;0.30;;
7667;SDS011;3876;42.204;24.686;2024-03-29T11:39:19;0.30;;;0.30;;
7667;SDS011;3876;42.204;24.686;2024-03-29T11:41:47;0.50;;;0.50;;
7667;SDS011;3876;42.204;24.686;2024-03-29T11:44:14;0.20;;;0.20;;
7667;SDS011;3876;42.204;24.686;2024-03-29T11:46:42;0.37;;;0.37;;
7667;SDS011;3876;42.204;24.686;2024-03-29T11:49:09;0.40;;;0.40;;
7667;SDS011;3876;42.204;24.686;2024-03-29T11:51:36;0.40;;;0.40;;
7667;SDS011;3876;42.204;24.686;2024-03-29T11:54:03;0.30;;;0.30;;
7667;SDS011;3876;42.204;24.686;2024-03-29T11:56:30;0.77;;;0.40;;
7667;SDS011;3876;42.204;24.686;2024-03-29T11:58:56;0.30;;;0.30;;
7667;SDS011;3876;42.204;24.686;2024-03-29T12:01:25;0.53;;;0.53;;
7667;SDS011;3876;42.204;24.686;2024-03-29T12:03:55;0.30;;;0.30;;
7667;SDS011;3876;42.204;24.686;2024-03-29T12:06:22;0.30;;;0.30;;
7667;SDS011;3876;42.204;24.686;2024-03-29T12:08:49;0.40;;;0.40;;
7667;SDS011;3876;42.204;24.686;2024-03-29T12:11:18;1.30;;;0.60;;
7667;SDS011;3876;42.204;24.686;2024-03-29T12:13:45;0.50;;;0.50;;
7667;SDS011;3876;42.204;24.686;2024-03-29T12:16:12;0.30;;;0.30;;
7667;SDS011;3876;42.204;24.686;2024-03-29T12:18:38;0.37;;;0.37;;
7667;SDS011;3876;42.204;24.686;2024-03-29T12:21:07;0.50;;;0.50;;
7667;SDS011;3876;42.204;24.686;2024-03-29T12:23:34;0.50;;;0.40;;
7667;SDS011;3876;42.204;24.686;2024-03-29T12:26:01;0.40;;;0.40;;
7667;SDS011;3876;42.204;24.686;2024-03-29T12:28:28;0.30;;;0.30;;
7667;SDS011;3876;42.204;24.686;2024-03-29T12:30:59;1.92;;;0.50;;
7667;SDS011;3876;42.204;24.686;2024-03-29T12:33:26;0.30;;;0.30;;
7667;SDS011;3876;42.204;24.686;2024-03-29T12:35:54;0.30;;;0.30;;
7667;SDS011;3876;42.204;24.686;2024-03-29T12:38:23;0.40;;;0.40;;
7667;SDS011;3876;42.204;24.686;2024-03-29T12:40:50;0.47;;;0.47;;
7667;SDS011;3876;42.204;24.686;2024-03-29T12:43:19;0.60;;;0.60;;
7667;SDS011;3876;42.204;24.686;2024-03-29T12:45:47;0.40;;;0.40;;
7667;SDS011;3876;42.204;24.686;2024-03-29T12:48:16;0.33;;;0.33;;
7667;SDS011;3876;42.204;24.686;2024-03-29T12:50:44;0.40;;;0.40;;
7667;SDS011;3876;42.204;24.686;2024-03-29T12:53:12;0.53;;;0.53;;
7667;SDS011;3876;42.204;24.686;2024-03-29T12:55:41;0.40;;;0.40;;
7667;SDS011;3876;42.204;24.686;2024-03-29T12:58:10;0.30;;;0.30;;
7667;SDS011;3876;42.204;24.686;2024-03-29T13:00:38;0.40;;;0.40;;
7667;SDS011;3876;42.204;24.686;2024-03-29T13:03:05;0.60;;;0.60;;
7667;SDS011;3876;42.204;24.686;2024-03-29T13:05:32;0.40;;;0.40;;
7667;SDS011;3876;42.204;24.686;2024-03-29T13:08:02;0.40;;;0.40;;
7667;SDS011;3876;42.204;24.686;2024-03-29T13:10:30;0.20;;;0.20;;
7667;SDS011;3876;42.204;24.686;2024-03-29T13:12:58;0.40;;;0.40;;
7667;SDS011;3876;42.204;24.686;2024-03-29T13:15:25;0.20;;;0.20;;
7667;SDS011;3876;42.204;24.686;2024-03-29T13:17:53;0.83;;;0.47;;
7667;SDS011;3876;42.204;24.686;2024-03-29T13:20:22;1.10;;;0.40;;
7667;SDS011;3876;42.204;24.686;2024-03-29T13:22:50;0.50;;;0.50;;
7667;SDS011;3876;42.204;24.686;2024-03-29T13:25:19;0.20;;;0.20;;
7667;SDS011;3876;42.204;24.686;2024-03-29T13:27:47;0.30;;;0.30;;
7667;SDS011;3876;42.204;24.686;2024-03-29T13:30:18;1.80;;;0.40;;
7667;SDS011;3876;42.204;24.686;2024-03-29T13:32:46;0.47;;;0.47;;
7667;SDS011;3876;42.204;24.686;2024-03-29T13:35:13;0.50;;;0.50;;
7667;SDS011;3876;42.204;24.686;2024-03-29T13:37:40;0.63;;;0.30;;
7667;SDS011;3876;42.204;24.686;2024-03-29T13:40:11;0.50;;;0.50;;
7667;SDS011;3876;42.204;24.686;2024-03-29T13:42:38;0.33;;;0.33;;
7667;SDS011;3876;42.204;24.686;2024-03-29T13:45:06;0.40;;;0.40;;
7667;SDS011;3876;42.204;24.686;2024-03-29T13:47:36;2.43;;;0.30;;
7667;SDS011;3876;42.204;24.686;2024-03-29T13:50:04;0.40;;;0.40;;
7667;SDS011;3876;42.204;24.686;2024-03-29T13:52:31;0.63;;;0.30;;
7667;SDS011;3876;42.204;24.686;2024-03-29T13:54:58;0.30;;;0.30;;
7667;SDS011;3876;42.204;24.686;2024-03-29T13:57:25;0.30;;;0.30;;
7667;SDS011;3876;42.204;24.686;2024-03-29T13:59:52;0.30;;;0.30;;
7667;SDS011;3876;42.204;24.686;2024-03-29T14:02:19;0.23;;;0.23;;
7667;SDS011;3876;42.204;24.686;2024-03-29T14:04:49;0.43;;;0.43;;
7667;SDS011;3876;42.204;24.686;2024-03-29T14:07:15;0.47;;;0.47;;
7667;SDS011;3876;42.204;24.686;2024-03-29T14:09:43;0.50;;;0.50;;
7667;SDS011;3876;42.204;24.686;2024-03-29T14:12:10;0.67;;;0.50;;
7667;SDS011;3876;42.204;24.686;2024-03-29T14:14:38;0.30;;;0.30;;
7667;SDS011;3876;42.204;24.686;2024-03-29T14:17:04;0.40;;;0.40;;
7667;SDS011;3876;42.204;24.686;2024-03-29T14:19:32;2.67;;;0.50;;
7667;SDS011;3876;42.204;24.686;2024-03-29T14:22:00;0.30;;;0.30;;
7667;SDS011;3876;42.204;24.686;2024-03-29T14:24:27;0.40;;;0.40;;
7667;SDS011;3876;42.204;24.686;2024-03-29T14:26:55;0.37;;;0.37;;
7667;SDS011;3876;42.204;24.686;2024-03-29T14:29:22;3.93;;;0.40;;
7667;SDS011;3876;42.204;24.686;2024-03-29T14:31:49;3.63;;;0.57;;
7667;SDS011;3876;42.204;24.686;2024-03-29T14:34:16;0.43;;;0.43;;
7667;SDS011;3876;42.204;24.686;2024-03-29T14:36:43;1.30;;;0.67;;
7667;SDS011;3876;42.204;24.686;2024-03-29T14:39:11;0.60;;;0.33;;
7667;SDS011;3876;42.204;24.686;2024-03-29T14:41:38;0.50;;;0.50;;
7667;SDS011;3876;42.204;24.686;2024-03-29T14:44:05;2.63;;;0.60;;
7667;SDS011;3876;42.204;24.686;2024-03-29T14:46:33;0.40;;;0.40;;
7667;SDS011;3876;42.204;24.686;2024-03-29T14:49:00;0.47;;;0.47;;
7667;SDS011;3876;42.204;24.686;2024-03-29T14:51:30;0.53;;;0.50;;
7667;SDS011;3876;42.204;24.686;2024-03-29T14:53:56;0.90;;;0.50;;
7667;SDS011;3876;42.204;24.686;2024-03-29T14:56:24;0.40;;;0.40;;
7667;SDS011;3876;42.204;24.686;2024-03-29T14:58:51;0.50;;;0.50;;
7667;SDS011;3876;42.204;24.686;2024-03-29T15:01:18;1.43;;;0.80;;